createdAt,value
2023-03-06T00:02:05.068Z,94663.69
2023-03-06T00:04:31.739Z,94665.59
2023-03-06T00:06:58.508Z,94662.91
2023-03-06T00:09:25.409Z,94672.53
2023-03-06T00:11:54.506Z,94657.00
2023-03-06T00:14:21.293Z,94656.72
2023-03-06T00:16:48.394Z,94653.53
2023-03-06T00:19:16.380Z,94653.53
2023-03-06T00:21:43.070Z,94651.50
2023-03-06T00:24:09.989Z,94648.25
2023-03-06T00:26:36.788Z,94645.84
2023-03-06T00:29:03.692Z,94640.78
2023-03-06T00:31:30.584Z,94642.97
2023-03-06T00:33:57.671Z,94641.06
2023-03-06T00:36:24.413Z,94631.41
2023-03-06T00:38:51.237Z,94633.00
2023-03-06T00:41:20.539Z,94629.53
2023-03-06T00:43:47.307Z,94624.97
2023-03-06T00:46:14.615Z,94620.38
2023-03-06T00:48:41.436Z,94616.91
2023-03-06T00:51:10.940Z,94609.16
2023-03-06T00:53:38.908Z,94594.97
2023-03-06T00:56:06.100Z,94597.94
2023-03-06T00:58:33.009Z,94592.84
2023-03-06T01:00:59.783Z,94596.91
2023-03-06T01:03:27.908Z,94589.44
2023-03-06T01:05:54.722Z,94585.66
2023-03-06T01:08:21.689Z,94586.25
2023-03-06T01:10:48.668Z,94582.78
2023-03-06T01:13:16.393Z,94579.84
2023-03-06T01:15:44.066Z,94572.91
2023-03-06T01:18:10.904Z,94571.03
2023-03-06T01:20:37.999Z,94568.63
2023-03-06T01:23:04.780Z,94560.59
2023-03-06T01:25:31.705Z,94555.22
2023-03-06T01:28:00.235Z,94552.84
2023-03-06T01:30:27.200Z,94552.03
2023-03-06T01:32:54.433Z,94549.66
2023-03-06T01:35:24.779Z,94538.94
2023-03-06T01:37:51.686Z,94541.59
2023-03-06T01:40:18.474Z,94540.78
2023-03-06T01:42:46.790Z,94538.09
2023-03-06T01:45:14.218Z,94534.63
2023-03-06T01:47:42.157Z,94525.00
2023-03-06T01:50:12.887Z,94531.47
2023-03-06T01:52:49.200Z,94519.91
2023-03-06T01:55:19.588Z,94508.69
2023-03-06T01:57:55.166Z,94505.50
2023-03-06T02:00:25.584Z,94498.03
2023-03-06T02:03:01.324Z,94494.88
2023-03-06T02:05:27.858Z,94491.38
2023-03-06T02:07:55.186Z,94489.78
2023-03-06T02:10:22.102Z,94493.56
2023-03-06T02:12:51.127Z,94484.72
2023-03-06T02:15:21.058Z,94483.13
2023-03-06T02:17:48.516Z,94475.88
2023-03-06T02:20:40.122Z,94475.38
2023-03-06T02:23:18.398Z,94476.16
2023-03-06T02:25:48.096Z,94469.72
2023-03-06T02:28:18.431Z,94462.75
2023-03-06T02:30:47.477Z,94463.56
2023-03-06T02:33:16.784Z,94460.06
2023-03-06T02:35:49.712Z,94460.66
2023-03-06T02:38:18.928Z,94456.41
2023-03-06T02:40:49.853Z,94462.34
2023-03-06T02:43:21.145Z,94444.94
2023-03-06T02:45:50.293Z,94437.19
2023-03-06T02:48:18.334Z,94446.34
2023-03-06T02:50:46.807Z,94435.91
2023-03-06T02:53:15.396Z,94434.88
2023-03-06T02:55:42.953Z,94431.41
2023-03-06T02:58:09.698Z,94429.03
2023-03-06T03:00:36.935Z,94428.25
2023-03-06T03:03:07.073Z,94430.38
2023-03-06T03:05:33.676Z,94419.19
2023-03-06T03:08:08.115Z,94415.72
2023-03-06T03:10:35.284Z,94420.81
2023-03-06T03:13:02.137Z,94415.75
2023-03-06T03:15:28.909Z,94413.66
2023-03-06T03:17:55.488Z,94403.22
2023-03-06T03:20:22.575Z,94403.03
2023-03-06T03:22:55.189Z,94412.47
2023-03-06T03:25:24.261Z,94415.13
2023-03-06T03:27:51.758Z,94419.19
2023-03-06T03:30:19.797Z,94405.00
2023-03-06T03:32:46.302Z,94403.41
2023-03-06T03:35:13.321Z,94401.78
2023-03-06T03:37:41.402Z,94401.78
2023-03-06T03:40:09.365Z,94396.97
2023-03-06T03:42:36.681Z,94391.59
2023-03-06T03:45:05.147Z,94390.78
2023-03-06T03:47:31.923Z,94386.25
2023-03-06T03:49:59.831Z,94403.97
2023-03-06T03:52:26.464Z,94388.94
2023-03-06T03:54:52.974Z,94386.75
2023-03-06T03:57:19.619Z,94393.69
2023-03-06T03:59:50.760Z,94387.25
2023-03-06T04:02:23.362Z,94378.13
2023-03-06T04:05:04.737Z,94383.47
2023-03-06T04:07:31.550Z,94379.72
2023-03-06T04:09:58.317Z,94365.72
2023-03-06T04:12:26.732Z,94375.34
2023-03-06T04:14:53.323Z,94369.22
2023-03-06T04:17:19.929Z,94374.28
2023-03-06T04:19:47.697Z,94370.78
2023-03-06T04:22:14.383Z,94375.84
2023-03-06T04:24:40.973Z,94371.03
2023-03-06T04:27:08.534Z,94365.66
2023-03-06T04:29:35.107Z,94365.09
2023-03-06T04:32:02.685Z,94367.75
2023-03-06T04:34:29.274Z,94362.41
2023-03-06T04:36:56.844Z,94360.50
2023-03-06T04:39:23.620Z,94362.41
2023-03-06T04:41:50.430Z,94357.81
2023-03-06T04:44:17.101Z,94358.63
2023-03-06T04:46:43.598Z,94358.63
2023-03-06T04:49:10.152Z,94357.81
2023-03-06T04:51:36.868Z,94359.44
2023-03-06T04:54:04.547Z,94353.25
2023-03-06T04:56:31.043Z,94351.97
2023-03-06T04:58:57.630Z,94350.38
2023-03-06T05:01:24.705Z,94353.84
2023-03-06T05:03:51.217Z,94345.78
2023-03-06T05:06:17.764Z,94348.47
2023-03-06T05:08:44.439Z,94350.66
2023-03-06T05:11:11.248Z,94355.53
2023-03-06T05:13:37.821Z,94351.75
2023-03-06T05:16:05.671Z,94352.84
2023-03-06T05:18:33.056Z,94346.66
2023-03-06T05:20:59.911Z,94347.50
2023-03-06T05:23:28.251Z,94342.13
2023-03-06T05:25:54.932Z,94344.50
2023-03-06T05:28:21.576Z,94338.34
2023-03-06T05:30:48.417Z,94339.94
2023-03-06T05:33:14.998Z,94331.41
2023-03-06T05:35:46.059Z,94335.94
2023-03-06T05:38:12.664Z,94342.13
2023-03-06T05:40:43.236Z,94335.94
2023-03-06T05:43:10.417Z,94338.63
2023-03-06T05:45:37.419Z,94336.25
2023-03-06T05:48:04.308Z,94333.56
2023-03-06T05:50:30.906Z,94340.53
2023-03-06T05:52:57.424Z,94340.81
2023-03-06T05:55:24.173Z,94345.88
2023-03-06T05:57:51.552Z,94342.91
2023-03-06T06:00:19.090Z,94345.00
2023-03-06T06:02:46.672Z,94342.31
2023-03-06T06:05:13.702Z,94348.19
2023-03-06T06:07:41.053Z,94344.91
2023-03-06T06:10:08.958Z,94351.09
2023-03-06T06:12:35.881Z,94346.81
2023-03-06T06:15:02.753Z,94336.09
2023-03-06T06:17:32.293Z,94344.63
2023-03-06T06:19:59.020Z,94345.44
2023-03-06T06:22:25.627Z,94344.84
2023-03-06T06:24:52.393Z,94347.50
2023-03-06T06:27:19.019Z,94342.38
2023-03-06T06:29:45.515Z,94342.59
2023-03-06T06:32:12.125Z,94351.94
2023-03-06T06:34:38.737Z,94349.16
2023-03-06T06:37:05.487Z,94340.25
2023-03-06T06:39:32.217Z,94344.72
2023-03-06T06:42:16.078Z,94349.19
2023-03-06T06:44:45.324Z,94349.09
2023-03-06T06:47:23.040Z,94348.22
2023-03-06T06:49:54.685Z,94358.34
2023-03-06T06:52:21.815Z,94351.81
2023-03-06T06:54:48.381Z,94349.63
2023-03-06T06:57:15.409Z,94352.22
2023-03-06T06:59:42.076Z,94351.63
2023-03-06T07:02:11.919Z,94350.44
2023-03-06T07:04:44.318Z,94348.72
2023-03-06T07:07:16.091Z,94353.22
2023-03-06T07:09:42.708Z,94353.91
2023-03-06T07:12:09.398Z,94358.41
2023-03-06T07:14:36.580Z,94356.38
2023-03-06T07:17:03.174Z,94352.03
2023-03-06T07:19:29.799Z,94353.53
2023-03-06T07:21:56.311Z,94353.41
2023-03-06T07:24:22.815Z,94360.56
2023-03-06T07:26:49.510Z,94356.97
2023-03-06T07:29:16.165Z,94354.69
2023-03-06T07:31:42.795Z,94367.19
2023-03-06T07:34:13.067Z,94364.72
2023-03-06T07:36:39.700Z,94362.72
2023-03-06T07:39:09.806Z,94354.53
2023-03-06T07:41:36.469Z,94358.22
2023-03-06T07:44:03.114Z,94361.63
2023-03-06T07:46:32.136Z,94364.66
2023-03-06T07:48:58.647Z,94358.88
2023-03-06T07:51:25.260Z,94362.25
2023-03-06T07:53:51.902Z,94359.91
2023-03-06T07:56:18.488Z,94370.59
2023-03-06T07:58:46.347Z,94365.38
2023-03-06T08:01:18.871Z,94376.31
2023-03-06T08:03:45.974Z,94371.94
2023-03-06T08:06:15.018Z,94375.09
2023-03-06T08:08:44.537Z,94379.09
2023-03-06T08:11:12.854Z,94368.03
2023-03-06T08:13:39.592Z,94368.13
2023-03-06T08:16:07.183Z,94369.28
2023-03-06T08:18:34.238Z,94370.59
2023-03-06T08:21:12.013Z,94368.06
2023-03-06T08:23:39.641Z,94372.06
2023-03-06T08:26:11.424Z,94370.63
2023-03-06T08:28:37.957Z,94362.25
2023-03-06T08:31:10.336Z,94368.25
2023-03-06T08:33:37.361Z,94372.72
2023-03-06T08:36:04.286Z,94370.53
2023-03-06T08:38:30.953Z,94369.59
2023-03-06T08:40:57.717Z,94369.78
2023-03-06T08:43:24.257Z,94375.03
2023-03-06T08:45:57.783Z,94381.88
2023-03-06T08:48:25.286Z,94381.47
2023-03-06T08:50:52.514Z,94383.56
2023-03-06T08:53:19.262Z,94383.56
2023-03-06T08:55:46.056Z,94385.31
2023-03-06T08:58:12.871Z,94387.84
2023-03-06T09:00:39.554Z,94379.25
2023-03-06T09:03:06.211Z,94387.03
2023-03-06T09:05:33.143Z,94382.63
2023-03-06T09:07:59.732Z,94387.09
2023-03-06T09:10:28.893Z,94389.34
2023-03-06T09:12:55.541Z,94387.63
2023-03-06T09:15:23.293Z,94387.31
2023-03-06T09:17:50.370Z,94387.31
2023-03-06T09:20:17.540Z,94385.09
2023-03-06T09:22:44.185Z,94384.31
2023-03-06T09:25:11.270Z,94378.28
2023-03-06T09:27:37.789Z,94382.75
2023-03-06T09:30:05.070Z,94388.34
2023-03-06T09:32:31.630Z,94381.50
2023-03-06T09:34:58.597Z,94384.72
2023-03-06T09:37:25.225Z,94380.28
2023-03-06T09:39:51.713Z,94383.44
2023-03-06T09:42:24.947Z,94385.53
2023-03-06T09:44:58.686Z,94387.28
2023-03-06T09:47:47.778Z,94388.09
2023-03-06T09:50:38.314Z,94386.81
2023-03-06T09:53:31.089Z,94377.50
2023-03-06T09:56:15.709Z,94390.19
2023-03-06T09:58:48.787Z,94383.56
2023-03-06T10:01:34.281Z,94380.06
2023-03-06T10:04:09.169Z,94378.00
2023-03-06T10:06:53.086Z,94373.09
2023-03-06T10:09:52.669Z,94376.28
2023-03-06T10:12:29.131Z,94372.66
2023-03-06T10:15:22.371Z,94382.81
2023-03-06T10:17:49.011Z,94375.19
2023-03-06T10:20:17.282Z,94376.16
2023-03-06T10:23:01.063Z,94373.75
2023-03-06T10:25:44.483Z,94376.16
2023-03-06T10:28:17.418Z,94372.34
2023-03-06T10:30:55.902Z,94371.88
2023-03-06T10:33:30.479Z,94369.66
2023-03-06T10:35:57.318Z,94371.38
2023-03-06T10:38:30.956Z,94369.66
2023-03-06T10:41:12.714Z,94374.06
2023-03-06T10:44:02.138Z,94373.75
2023-03-06T10:46:39.683Z,94369.47
2023-03-06T10:49:24.150Z,94366.47
2023-03-06T10:52:06.248Z,94361.53
2023-03-06T10:54:38.953Z,94367.41
2023-03-06T10:57:17.372Z,94352.03
2023-03-06T11:00:00.931Z,94361.88
2023-03-06T11:02:33.690Z,94364.75
2023-03-06T11:05:02.128Z,94356.03
2023-03-06T11:13:22.147Z,94353.34
2023-03-06T11:16:30.122Z,94357.00
2023-03-06T11:19:05.140Z,94354.63
2023-03-06T11:21:34.594Z,94346.72
2023-03-06T11:24:11.901Z,94352.25
2023-03-06T11:26:46.719Z,94353.53
2023-03-06T11:29:38.965Z,94351.94
2023-03-06T11:32:23.785Z,94339.25
2023-03-06T11:34:59.145Z,94342.44
2023-03-06T11:37:37.670Z,94332.28
2023-03-06T11:40:15.281Z,94324.03
2023-03-06T11:43:04.423Z,94320.22
2023-03-06T11:45:44.916Z,94322.44
2023-03-06T11:48:14.041Z,94330.69
2023-03-06T11:50:46.764Z,94323.56
2023-03-06T11:53:18.556Z,94321.19
2023-03-06T11:55:59.741Z,94323.69
2023-03-06T11:59:10.803Z,94328.63
2023-03-06T12:02:01.660Z,94334.97
2023-03-06T12:04:41.359Z,94322.78
2023-03-06T12:07:20.833Z,94324.50
2023-03-06T12:09:57.511Z,94328.00
2023-03-06T12:12:59.988Z,94326.09
2023-03-06T12:16:03.714Z,94325.13
2023-03-06T12:18:35.061Z,94328.94
2023-03-06T12:21:15.425Z,94326.19
2023-03-06T12:24:01.602Z,94323.50
2023-03-06T12:26:49.923Z,94326.94
2023-03-06T12:29:32.632Z,94322.84
2023-03-06T12:32:28.443Z,94322.66
2023-03-06T12:35:20.518Z,94326.47
2023-03-06T12:38:05.585Z,94316.13
2023-03-06T12:40:55.899Z,94315.50
2023-03-06T12:43:34.103Z,94313.59
2023-03-06T12:46:24.731Z,94321.34
2023-03-06T12:49:31.914Z,94311.88
2023-03-06T12:51:59.989Z,94310.75
2023-03-06T12:54:30.626Z,94308.72
2023-03-06T12:56:59.879Z,94311.25
2023-03-06T12:59:35.405Z,94318.22
2023-03-06T13:02:22.585Z,94315.22
2023-03-06T13:05:02.761Z,94309.53
2023-03-06T13:07:37.771Z,94305.09
2023-03-06T13:10:28.077Z,94320.78
2023-03-06T13:12:58.203Z,94314.59
2023-03-06T13:15:44.798Z,94315.53
2023-03-06T13:18:23.316Z,94322.03
2023-03-06T13:20:55.156Z,94311.25
2023-03-06T13:23:30.608Z,94313.16
2023-03-06T13:26:18.719Z,94309.69
2023-03-06T13:28:49.439Z,94306.50
2023-03-06T13:31:27.926Z,94314.56
2023-03-06T13:34:04.147Z,94306.50
2023-03-06T13:36:38.318Z,94311.09
2023-03-06T13:39:10.523Z,94302.53
2023-03-06T13:41:54.662Z,94306.50
2023-03-06T13:44:24.320Z,94304.63
2023-03-06T13:47:05.027Z,94309.50
2023-03-06T13:49:33.563Z,94305.88
2023-03-06T13:52:18.163Z,94297.47
2023-03-06T13:55:11.899Z,94298.72
2023-03-06T13:57:44.965Z,94291.16
2023-03-06T14:00:42.074Z,94284.16
2023-03-06T14:03:31.702Z,94297.16
2023-03-06T14:05:58.441Z,94304.09
2023-03-06T14:08:29.449Z,94301.91
2023-03-06T14:11:06.665Z,94296.53
2023-03-06T14:13:45.464Z,94298.09
2023-03-06T14:16:20.839Z,94295.72
2023-03-06T14:18:50.450Z,94300.94
2023-03-06T14:21:28.154Z,94292.09
2023-03-06T14:24:03.838Z,94288.09
2023-03-06T14:26:40.708Z,94291.41
2023-03-06T14:29:20.391Z,94297.44
2023-03-06T14:31:53.300Z,94287.78
2023-03-06T14:34:25.814Z,94293.94
2023-03-06T14:36:59.961Z,94291.88
2023-03-06T14:39:40.307Z,94294.88
2023-03-06T14:42:19.920Z,94295.50
2023-03-06T14:45:19.980Z,94290.28
2023-03-06T14:47:51.745Z,94279.97
2023-03-06T14:50:25.832Z,94283.75
2023-03-06T14:52:56.486Z,94291.38
2023-03-06T14:55:28.148Z,94285.50
2023-03-06T14:58:00.492Z,94286.59
2023-03-06T15:00:34.753Z,94293.44
2023-03-06T15:03:04.339Z,94287.22
2023-03-06T15:05:31.725Z,94286.13
2023-03-06T15:08:03.162Z,94288.81
2023-03-06T15:10:32.851Z,94294.22
2023-03-06T15:13:20.411Z,94291.53
2023-03-06T15:16:08.839Z,94292.91
2023-03-06T15:18:42.757Z,94280.28
2023-03-06T15:21:20.648Z,94281.69
2023-03-06T15:23:49.831Z,94291.03
2023-03-06T15:26:19.336Z,94275.31
2023-03-06T15:29:00.009Z,94283.09
2023-03-06T15:31:40.345Z,94285.00
2023-03-06T15:34:06.998Z,94278.50
2023-03-06T15:36:47.697Z,94288.47
2023-03-06T15:39:36.545Z,94286.91
2023-03-06T15:42:24.260Z,94284.22
2023-03-06T15:44:56.337Z,94288.47
2023-03-06T15:47:23.817Z,94280.91
2023-03-06T15:49:50.477Z,94280.91
2023-03-06T15:52:16.942Z,94280.91
2023-03-06T15:54:46.075Z,94277.09
2023-03-06T15:57:26.023Z,94286.28
2023-03-06T15:59:53.376Z,94281.69
2023-03-06T16:02:22.518Z,94291.16
2023-03-06T16:04:49.394Z,94292.28
2023-03-06T16:07:16.554Z,94287.69
2023-03-06T16:09:43.851Z,94294.47
2023-03-06T16:12:21.208Z,94274.84
2023-03-06T16:14:48.833Z,94285.63
2023-03-06T16:17:16.048Z,94288.63
2023-03-06T16:19:42.597Z,94297.16
2023-03-06T16:22:09.132Z,94295.91
2023-03-06T16:24:35.600Z,94295.09
2023-03-06T16:27:02.707Z,94297.78
2023-03-06T16:29:29.753Z,94296.53
2023-03-06T16:31:57.491Z,94301.44
2023-03-06T16:34:24.679Z,94302.22
2023-03-06T16:36:51.309Z,94311.06
2023-03-06T16:39:21.732Z,94300.94
2023-03-06T16:41:48.400Z,94305.53
2023-03-06T16:44:15.081Z,94302.03
2023-03-06T16:46:43.164Z,94296.97
2023-03-06T16:49:20.479Z,94304.97
2023-03-06T16:51:47.086Z,94295.22
2023-03-06T16:54:13.869Z,94305.97
2023-03-06T16:56:41.052Z,94301.97
2023-03-06T16:59:07.784Z,94305.75
2023-03-06T17:01:34.512Z,94299.56
2023-03-06T17:04:01.380Z,94303.69
2023-03-06T17:06:28.445Z,94310.94
2023-03-06T17:08:55.005Z,94302.41
2023-03-06T17:11:21.597Z,94311.88
2023-03-06T17:13:48.245Z,94307.63
2023-03-06T17:16:15.394Z,94316.00
2023-03-06T17:18:45.712Z,94310.09
2023-03-06T17:21:13.662Z,94315.78
2023-03-06T17:23:40.207Z,94314.22
2023-03-06T17:26:15.259Z,94322.28
2023-03-06T17:28:42.559Z,94320.22
2023-03-06T17:31:20.904Z,94324.81
2023-03-06T17:33:48.442Z,94331.28
2023-03-06T17:36:16.092Z,94327.00
2023-03-06T17:38:43.054Z,94325.44
2023-03-06T17:41:10.749Z,94324.59
2023-03-06T17:43:37.990Z,94328.41
2023-03-06T17:46:06.693Z,94332.19
2023-03-06T17:48:34.030Z,94332.97
2023-03-06T17:51:03.021Z,94326.81
2023-03-06T17:53:29.606Z,94324.44
2023-03-06T17:55:56.416Z,94327.91
2023-03-06T17:58:23.049Z,94327.59
2023-03-06T18:00:49.666Z,94322.53
2023-03-06T18:03:16.307Z,94326.81
2023-03-06T18:05:43.348Z,94323.81
2023-03-06T18:08:09.889Z,94336.50
2023-03-06T18:10:40.304Z,94341.88
2023-03-06T18:13:07.661Z,94336.50
2023-03-06T18:15:37.658Z,94341.88
2023-03-06T18:18:04.459Z,94351.50
2023-03-06T18:20:31.045Z,94344.56
2023-03-06T18:22:57.610Z,94347.25
2023-03-06T18:25:24.129Z,94355.31
2023-03-06T18:27:50.894Z,94346.44
2023-03-06T18:30:17.698Z,94350.72
2023-03-06T18:32:44.356Z,94349.94
2023-03-06T18:35:10.828Z,94348.50
2023-03-06T18:37:37.445Z,94345.34
2023-03-06T18:40:04.335Z,94352.31
2023-03-06T18:42:30.906Z,94353.88
2023-03-06T18:44:57.348Z,94356.88
2023-03-06T18:47:23.822Z,94359.25
2023-03-06T18:49:50.353Z,94354.69
2023-03-06T18:52:16.885Z,94355.78
2023-03-06T18:54:43.393Z,94358.47
2023-03-06T18:57:09.890Z,94354.69
2023-03-06T18:59:36.880Z,94359.25
2023-03-06T19:02:03.841Z,94362.78
2023-03-06T19:04:30.315Z,94361.97
2023-03-06T19:06:56.817Z,94361.16
2023-03-06T19:09:23.490Z,94359.56
2023-03-06T19:11:49.962Z,94361.78
2023-03-06T19:14:16.776Z,94359.88
2023-03-06T19:16:43.394Z,94353.22
2023-03-06T19:19:10.005Z,94355.94
2023-03-06T19:21:36.520Z,94360.00
2023-03-06T19:24:03.330Z,94358.72
2023-03-06T19:26:29.939Z,94357.13
2023-03-06T19:28:56.383Z,94355.53
2023-03-06T19:31:26.219Z,94363.91
2023-03-06T19:33:54.065Z,94362.03
2023-03-06T19:36:21.561Z,94360.44
2023-03-06T19:38:48.069Z,94360.75
2023-03-06T19:41:14.535Z,94358.84
2023-03-06T19:43:43.758Z,94356.97
2023-03-06T19:46:13.874Z,94358.34
2023-03-06T19:48:41.543Z,94359.97
2023-03-06T19:51:09.093Z,94362.13
2023-03-06T19:53:35.609Z,94372.41
2023-03-06T19:56:09.470Z,94354.38
2023-03-06T19:58:35.984Z,94356.28
2023-03-06T20:01:13.820Z,94360.97
2023-03-06T20:03:40.682Z,94359.09
2023-03-06T20:06:12.532Z,94359.09
2023-03-06T20:08:39.082Z,94363.66
2023-03-06T20:11:06.687Z,94360.19
2023-03-06T20:13:33.506Z,94359.69
2023-03-06T20:16:06.934Z,94363.00
2023-03-06T20:18:39.507Z,94356.84
2023-03-06T20:21:06.448Z,94360.31
2023-03-06T20:23:33.607Z,94369.16
2023-03-06T20:26:05.770Z,94368.69
2023-03-06T20:28:33.293Z,94373.75
2023-03-06T20:31:06.474Z,94368.97
2023-03-06T20:33:34.792Z,94380.50
2023-03-06T20:36:01.543Z,94380.81
2023-03-06T20:38:28.295Z,94378.13
2023-03-06T20:40:55.108Z,94381.94
2023-03-06T20:43:23.661Z,94380.34
2023-03-06T20:46:03.886Z,94365.59
2023-03-06T20:48:31.697Z,94359.13
2023-03-06T20:51:07.649Z,94361.81
2023-03-06T20:53:35.613Z,94364.22
2023-03-06T20:56:02.455Z,94364.81
2023-03-06T20:58:29.239Z,94360.84
2023-03-06T21:00:57.490Z,94359.25
2023-03-06T21:03:24.938Z,94363.81
2023-03-06T21:05:51.971Z,94373.00
2023-03-06T21:08:18.749Z,94370.63
2023-03-06T21:10:45.525Z,94365.84
2023-03-06T21:13:12.414Z,94375.00
2023-03-06T21:15:40.157Z,94366.94
2023-03-06T21:18:07.202Z,94365.34
2023-03-06T21:20:39.164Z,94358.09
2023-03-06T21:23:09.246Z,94345.75
2023-03-06T21:25:36.611Z,94347.34
2023-03-06T21:28:03.188Z,94343.25
2023-03-06T21:30:30.021Z,94349.41
2023-03-06T21:32:56.666Z,94348.63
2023-03-06T21:35:23.391Z,94350.19
2023-03-06T21:37:50.173Z,94345.34
2023-03-06T21:40:17.124Z,94351.03
2023-03-06T21:42:43.823Z,94352.09
2023-03-06T21:45:10.815Z,94353.72
2023-03-06T21:47:37.942Z,94350.50
2023-03-06T21:50:06.507Z,94357.31
2023-03-06T21:52:33.212Z,94356.47
2023-03-06T21:55:01.530Z,94354.09
2023-03-06T21:57:28.256Z,94353.91
2023-03-06T21:59:55.038Z,94352.31
2023-03-06T22:02:23.383Z,94352.31
2023-03-06T22:04:51.480Z,94352.31
2023-03-06T22:07:19.765Z,94348.53
2023-03-06T22:09:51.065Z,94341.56
2023-03-06T22:12:18.730Z,94337.78
2023-03-06T22:14:45.404Z,94341.56
2023-03-06T22:17:12.076Z,94335.09
2023-03-06T22:19:39.030Z,94334.03
2023-03-06T22:22:05.671Z,94326.25
2023-03-06T22:24:33.937Z,94322.75
2023-03-06T22:27:04.174Z,94322.09
2023-03-06T22:29:30.968Z,94316.91
2023-03-06T22:31:57.596Z,94323.38
2023-03-06T22:34:26.755Z,94320.69
2023-03-06T22:36:53.305Z,94320.69
2023-03-06T22:39:20.044Z,94323.56
2023-03-06T22:41:46.660Z,94311.72
2023-03-06T22:44:17.472Z,94316.31
2023-03-06T22:46:44.398Z,94315.22
2023-03-06T22:49:14.515Z,94312.22
2023-03-06T22:51:43.035Z,94304.47
2023-03-06T22:54:12.497Z,94314.09
2023-03-06T22:56:41.804Z,94296.88
2023-03-06T22:59:08.469Z,94292.59
2023-03-06T23:01:35.290Z,94294.50
2023-03-06T23:04:04.628Z,94295.28
2023-03-06T23:06:36.926Z,94292.91
2023-03-06T23:09:14.863Z,94294.81
2023-03-06T23:11:59.922Z,94293.22
2023-03-06T23:14:45.338Z,94285.97
2023-03-06T23:17:30.798Z,94286.25
2023-03-06T23:20:19.027Z,94286.25
2023-03-06T23:23:06.650Z,94284.66
2023-03-06T23:25:43.588Z,94283.88
2023-03-06T23:28:12.330Z,94282.47
2023-03-06T23:30:42.095Z,94280.91
2023-03-06T23:33:09.051Z,94274.72
2023-03-06T23:35:37.447Z,94273.91
2023-03-06T23:38:04.089Z,94274.72
2023-03-06T23:40:34.824Z,94282.28
2023-03-06T23:43:01.509Z,94279.13
2023-03-06T23:45:28.277Z,94289.06
2023-03-06T23:47:56.394Z,94288.56
2023-03-06T23:50:23.456Z,94284.31
2023-03-06T23:52:53.971Z,94280.31
2023-03-06T23:55:22.733Z,94283.81
2023-03-06T23:57:49.363Z,94281.13
